createdAt,value
2022-12-25T00:00:36.441Z,23.15
2022-12-25T00:03:02.751Z,26.48
2022-12-25T00:05:28.953Z,26.42
2022-12-25T00:07:55.098Z,22.42
2022-12-25T00:10:21.202Z,18.95
2022-12-25T00:12:47.375Z,25.88
2022-12-25T00:15:13.515Z,20.15
2022-12-25T00:17:39.729Z,20.90
2022-12-25T00:20:06.458Z,24.20
2022-12-25T00:22:32.648Z,23.80
2022-12-25T00:24:58.759Z,22.40
2022-12-25T00:27:24.881Z,24.13
2022-12-25T00:29:50.996Z,23.88
2022-12-25T00:32:17.120Z,26.92
2022-12-25T00:34:43.241Z,22.23
2022-12-25T00:37:09.358Z,25.75
2022-12-25T00:39:35.485Z,23.15
2022-12-25T00:42:19.765Z,24.63
2022-12-25T00:44:47.123Z,20.85
2022-12-25T00:47:13.316Z,17.75
2022-12-25T00:49:39.473Z,35.22
2022-12-25T00:52:05.898Z,41.55
2022-12-25T00:54:32.019Z,89.50
2022-12-25T00:56:58.292Z,23.63
2022-12-25T00:59:24.540Z,35.90
2022-12-25T01:01:51.044Z,62.58
2022-12-25T01:04:17.290Z,67.53
2022-12-25T01:06:43.450Z,21.92
2022-12-25T01:09:28.264Z,17.65
2022-12-25T01:11:54.391Z,39.28
2022-12-25T01:14:20.514Z,35.15
2022-12-25T01:16:46.690Z,23.67
2022-12-25T01:19:13.113Z,32.03
2022-12-25T01:21:39.327Z,36.85
2022-12-25T01:24:05.791Z,45.25
2022-12-25T01:26:31.921Z,41.28
2022-12-25T01:28:58.024Z,29.17
2022-12-25T01:31:24.858Z,33.08
2022-12-25T01:33:51.588Z,30.85
2022-12-25T01:36:22.803Z,37.17
2022-12-25T01:38:49.641Z,29.77
2022-12-25T01:41:17.986Z,34.33
2022-12-25T01:43:59.340Z,46.40
2022-12-25T01:46:25.548Z,49.80
2022-12-25T01:48:53.360Z,31.13
2022-12-25T01:51:28.546Z,35.08
2022-12-25T01:53:57.880Z,25.73
2022-12-25T01:56:26.455Z,27.95
2022-12-25T01:58:54.338Z,29.20
2022-12-25T02:01:20.622Z,31.60
2022-12-25T02:03:46.820Z,36.20
2022-12-25T02:06:12.941Z,33.35
2022-12-25T02:08:40.404Z,40.33
2022-12-25T02:11:28.785Z,92.55
2022-12-25T02:13:55.294Z,70.00
2022-12-25T02:16:31.236Z,41.53
2022-12-25T02:19:09.895Z,53.00
2022-12-25T02:21:55.595Z,64.38
2022-12-25T02:24:43.245Z,55.03
2022-12-25T02:27:37.180Z,113.03
2022-12-25T02:30:06.816Z,74.03
2022-12-25T02:32:42.843Z,158.07
2022-12-25T02:35:18.356Z,107.35
2022-12-25T02:40:28.699Z,77.88
2022-12-25T02:43:31.710Z,61.45
2022-12-25T02:46:24.521Z,35.70
2022-12-25T02:49:16.495Z,54.55
2022-12-25T02:52:06.374Z,47.17
2022-12-25T02:54:59.309Z,70.60
2022-12-25T02:57:48.623Z,64.75
2022-12-25T03:00:33.901Z,91.60
2022-12-25T03:03:23.359Z,118.80
2022-12-25T03:06:10.480Z,50.47
2022-12-25T03:08:41.863Z,152.23
2022-12-25T03:11:29.011Z,67.82
2022-12-25T03:14:18.831Z,128.55
2022-12-25T03:16:53.714Z,50.85
2022-12-25T03:19:47.626Z,110.30
2022-12-25T03:22:37.863Z,60.78
2022-12-25T03:25:22.724Z,72.47
2022-12-25T03:27:52.642Z,65.35
2022-12-25T03:30:37.824Z,72.32
2022-12-25T03:33:43.182Z,50.10
2022-12-25T03:36:06.387Z,62.88
2022-12-25T03:38:50.746Z,53.65
2022-12-25T03:41:44.752Z,41.60
2022-12-25T03:44:43.950Z,58.08
2022-12-25T03:47:41.317Z,68.32
2022-12-25T03:50:37.979Z,48.70
2022-12-25T03:53:37.455Z,58.03
2022-12-25T03:56:23.436Z,63.83
2022-12-25T03:59:16.505Z,50.72
2022-12-25T04:02:04.107Z,47.17
2022-12-25T04:04:49.015Z,66.28
2022-12-25T04:07:33.783Z,44.50
2022-12-25T04:10:18.733Z,44.58
2022-12-25T04:13:03.271Z,62.27
2022-12-25T04:15:48.191Z,31.67
2022-12-25T04:18:33.291Z,32.13
2022-12-25T04:21:17.754Z,33.47
2022-12-25T04:24:02.714Z,66.90
2022-12-25T04:26:47.454Z,38.07
2022-12-25T04:29:32.249Z,38.35
2022-12-25T04:32:16.760Z,23.85
2022-12-25T04:35:01.569Z,30.80
2022-12-25T04:37:27.706Z,34.70
2022-12-25T04:39:53.844Z,35.03
2022-12-25T04:42:19.984Z,31.23
2022-12-25T04:44:46.118Z,38.53
2022-12-25T04:47:12.965Z,40.67
2022-12-25T04:49:39.413Z,30.95
2022-12-25T04:52:05.570Z,37.05
2022-12-25T04:54:31.776Z,31.60
2022-12-25T04:56:57.927Z,30.95
2022-12-25T04:59:24.107Z,64.60
2022-12-25T05:01:50.348Z,41.00
2022-12-25T07:59:19.728Z,20.83
2022-12-25T08:01:46.488Z,28.02
2022-12-25T08:04:12.870Z,22.83
2022-12-25T08:06:39.007Z,36.22
2022-12-25T08:09:08.302Z,62.08
2022-12-25T08:11:34.437Z,36.05
2022-12-25T08:14:00.812Z,34.47
2022-12-25T08:16:26.963Z,45.35
2022-12-25T08:18:53.470Z,39.30
2022-12-25T08:21:19.602Z,32.45
2022-12-25T08:23:47.410Z,31.48
2022-12-25T08:26:16.500Z,18.35
2022-12-25T08:28:43.018Z,21.13
2022-12-25T08:31:21.553Z,34.53
2022-12-25T08:33:49.039Z,27.70
2022-12-25T08:36:15.915Z,36.75
2022-12-25T08:38:42.171Z,30.77
2022-12-25T08:41:09.126Z,26.92
2022-12-25T08:43:35.316Z,20.67
2022-12-25T08:46:01.567Z,35.72
2022-12-25T08:48:28.094Z,20.80
2022-12-25T08:50:54.784Z,21.65
2022-12-25T08:53:21.908Z,27.33
2022-12-25T08:55:48.110Z,36.08
2022-12-25T08:58:17.069Z,26.83
2022-12-25T09:00:43.492Z,26.13
2022-12-25T09:03:09.684Z,25.10
2022-12-25T09:05:36.916Z,21.42
2022-12-25T09:08:03.404Z,22.17
2022-12-25T09:10:30.055Z,19.58
2022-12-25T09:12:56.242Z,24.35
2022-12-25T09:15:22.401Z,18.65
2022-12-25T09:17:48.523Z,25.83
2022-12-25T09:20:14.750Z,59.95
2022-12-25T09:22:40.999Z,48.85
2022-12-25T09:25:07.344Z,50.83
2022-12-25T09:27:33.468Z,26.98
2022-12-25T09:29:59.595Z,27.63
2022-12-25T09:32:25.802Z,44.60
2022-12-25T09:34:51.957Z,47.20
2022-12-25T09:37:18.097Z,27.42
2022-12-25T09:39:46.478Z,30.40
2022-12-25T09:42:21.531Z,34.45
2022-12-25T09:44:51.603Z,41.75
2022-12-25T09:47:21.890Z,36.50
2022-12-25T09:49:57.630Z,46.08
2022-12-25T09:52:30.398Z,17.65
2022-12-25T09:55:19.598Z,50.13
2022-12-25T09:57:54.184Z,23.20
2022-12-25T10:00:22.636Z,18.83
2022-12-25T10:03:13.163Z,20.08
2022-12-25T10:06:11.007Z,16.45
2022-12-25T10:09:07.974Z,22.25
2022-12-25T10:12:00.379Z,19.08
2022-12-25T10:14:45.236Z,21.15
2022-12-25T10:17:24.703Z,17.15
2022-12-25T10:20:14.495Z,15.10
2022-12-25T10:22:54.345Z,16.58
2022-12-25T10:25:24.158Z,27.20
2022-12-25T10:28:11.787Z,19.20
2022-12-25T10:30:40.028Z,20.40
2022-12-25T10:33:06.130Z,19.33
2022-12-25T10:35:32.988Z,20.77
2022-12-25T10:38:02.793Z,20.55
2022-12-25T10:40:46.003Z,21.30
2022-12-25T10:43:18.327Z,22.13
2022-12-25T10:45:49.528Z,24.83
2022-12-25T10:48:22.731Z,19.10
2022-12-25T10:50:49.573Z,22.48
2022-12-25T10:53:25.617Z,19.65
2022-12-25T10:56:03.409Z,23.17
2022-12-25T10:58:30.451Z,25.13
2022-12-25T11:01:06.793Z,17.80
2022-12-25T11:03:35.310Z,17.50
2022-12-25T11:06:03.003Z,27.27
2022-12-25T11:08:33.126Z,18.75
2022-12-25T11:11:06.600Z,43.20
2022-12-25T11:13:36.203Z,23.52
2022-12-25T11:16:05.418Z,17.73
2022-12-25T11:18:47.810Z,16.83
2022-12-25T11:21:26.451Z,15.68
2022-12-25T11:24:03.664Z,19.50
2022-12-25T11:26:35.423Z,15.23
2022-12-25T11:29:01.921Z,16.10
2022-12-25T11:31:37.288Z,18.13
2022-12-25T11:36:47.132Z,21.30
2022-12-25T11:39:42.598Z,30.77
2022-12-25T11:42:22.661Z,29.65
2022-12-25T11:45:10.341Z,17.80
2022-12-25T11:47:48.837Z,18.48
2022-12-25T11:50:54.581Z,12.00
2022-12-25T11:53:30.566Z,17.92
2022-12-25T11:56:02.594Z,13.02
2022-12-25T11:58:33.573Z,15.70
2022-12-25T12:01:04.983Z,15.15
2022-12-25T12:03:40.493Z,15.57
2022-12-25T12:06:29.996Z,15.90
2022-12-25T12:09:12.139Z,15.25
2022-12-25T12:11:46.680Z,23.77
2022-12-25T12:14:45.468Z,22.30
2022-12-25T12:17:13.518Z,15.45
2022-12-25T12:19:39.635Z,13.88
2022-12-25T12:22:06.053Z,24.73
2022-12-25T12:24:42.067Z,14.68
2022-12-25T12:27:27.906Z,13.88
2022-12-25T12:32:34.018Z,21.42
2022-12-25T12:35:05.708Z,23.80
2022-12-25T12:37:35.733Z,15.57
2022-12-25T12:40:02.823Z,19.55
2022-12-25T12:42:34.802Z,14.85
2022-12-25T12:45:11.051Z,36.47
2022-12-25T12:47:38.922Z,20.73
2022-12-25T12:50:05.993Z,26.88
2022-12-25T12:52:35.869Z,18.33
2022-12-25T12:55:08.309Z,16.48
2022-12-25T12:57:39.686Z,19.60
2022-12-25T13:00:11.058Z,19.73
2022-12-25T13:02:50.125Z,16.75
2022-12-25T13:05:33.982Z,12.63
2022-12-25T13:08:31.450Z,29.30
2022-12-25T13:11:21.203Z,28.60
2022-12-25T13:13:49.706Z,33.25
2022-12-25T13:16:26.721Z,30.95
2022-12-25T13:18:54.178Z,35.45
2022-12-25T13:21:29.113Z,28.13
2022-12-25T13:24:01.344Z,26.50
2022-12-25T13:26:28.795Z,21.23
2022-12-25T13:28:56.222Z,22.85
2022-12-25T13:31:25.363Z,25.85
2022-12-25T13:33:55.382Z,30.80
2022-12-25T13:36:21.606Z,35.05
2022-12-25T13:38:50.930Z,28.38
2022-12-25T13:41:41.845Z,27.65
2022-12-25T13:44:20.553Z,39.42
2022-12-25T13:46:47.191Z,25.13
2022-12-25T13:49:18.728Z,32.15
2022-12-25T13:51:46.318Z,31.70
2022-12-25T13:54:14.750Z,27.55
2022-12-25T13:56:55.312Z,26.85
2022-12-25T13:59:24.658Z,28.98
2022-12-25T14:01:52.297Z,27.00
2022-12-25T14:04:24.501Z,22.15
2022-12-25T14:06:52.408Z,30.10
2022-12-25T14:09:19.578Z,18.67
2022-12-25T14:11:51.503Z,16.30
2022-12-25T14:14:25.747Z,24.00
2022-12-25T14:16:56.471Z,18.90
2022-12-25T14:19:29.080Z,25.80
2022-12-25T14:22:01.724Z,18.80
2022-12-25T14:24:30.128Z,53.95
2022-12-25T14:27:02.012Z,51.30
2022-12-25T14:29:43.177Z,33.25
2022-12-25T14:32:16.141Z,34.08
2022-12-25T14:34:43.982Z,33.38
2022-12-25T14:37:16.215Z,43.58
2022-12-25T14:39:47.158Z,27.33
2022-12-25T14:42:22.390Z,28.83
2022-12-25T14:44:58.693Z,26.20
2022-12-25T14:47:25.475Z,22.52
2022-12-25T14:49:53.753Z,24.48
2022-12-25T14:52:25.442Z,16.38
2022-12-25T14:54:59.481Z,19.92
2022-12-25T14:57:29.512Z,19.55
2022-12-25T15:00:07.684Z,17.13
2022-12-25T15:02:40.607Z,17.63
2022-12-25T15:05:25.036Z,19.02
2022-12-25T15:08:17.916Z,20.77
2022-12-25T15:10:59.605Z,19.45
2022-12-25T15:13:27.912Z,18.73
2022-12-25T15:16:06.432Z,19.70
2022-12-25T15:18:38.235Z,24.17
2022-12-25T15:21:04.489Z,20.20
2022-12-25T15:23:30.635Z,22.55
2022-12-25T15:25:56.769Z,23.70
2022-12-25T15:28:23.002Z,25.17
2022-12-25T15:30:49.969Z,24.67
2022-12-25T15:33:18.537Z,25.65
2022-12-25T15:35:45.700Z,25.85
2022-12-25T15:38:13.253Z,24.58
2022-12-25T15:40:40.679Z,25.38
2022-12-25T15:43:14.480Z,27.05
2022-12-25T15:45:53.976Z,32.05
2022-12-25T15:48:20.141Z,30.10
2022-12-25T15:50:46.869Z,29.27
2022-12-25T15:53:13.066Z,30.67
2022-12-25T15:55:39.382Z,29.85
2022-12-25T15:58:05.504Z,31.83
2022-12-25T16:00:31.706Z,31.90
2022-12-25T16:02:58.075Z,36.53
2022-12-25T16:05:24.375Z,34.67
2022-12-25T16:07:50.565Z,35.38
2022-12-25T16:10:19.462Z,34.78
2022-12-25T16:12:46.073Z,37.15
2022-12-25T16:15:13.753Z,34.78
2022-12-25T16:17:39.883Z,33.03
2022-12-25T16:20:06.909Z,30.67
2022-12-25T16:22:39.708Z,35.22
2022-12-25T16:25:12.515Z,38.03
2022-12-25T16:27:38.643Z,30.17
2022-12-25T16:30:05.309Z,28.15
2022-12-25T16:32:31.479Z,35.80
2022-12-25T16:34:57.591Z,32.92
2022-12-25T16:37:24.019Z,35.38
2022-12-25T16:39:50.126Z,31.95
2022-12-25T16:42:16.285Z,33.03
2022-12-25T16:44:42.417Z,30.85
2022-12-25T16:47:08.560Z,31.35
2022-12-25T16:49:35.245Z,34.90
2022-12-25T16:52:01.365Z,32.33
2022-12-25T16:54:27.501Z,33.05
2022-12-25T16:56:53.629Z,36.25
2022-12-25T16:59:19.749Z,28.45
2022-12-25T17:01:45.989Z,30.80
2022-12-25T17:04:12.263Z,32.03
2022-12-25T17:06:38.557Z,34.92
2022-12-25T17:09:05.110Z,32.35
2022-12-25T17:11:32.013Z,32.35
2022-12-25T17:14:02.152Z,32.47
2022-12-25T17:16:31.088Z,32.88
2022-12-25T17:19:01.496Z,35.88
2022-12-25T17:21:28.786Z,32.65
2022-12-25T17:24:01.666Z,40.58
2022-12-25T17:26:30.035Z,37.58
2022-12-25T17:28:56.468Z,31.58
2022-12-25T17:31:23.277Z,35.10
2022-12-25T17:33:49.520Z,33.10
2022-12-25T17:36:18.383Z,33.22
2022-12-25T17:38:44.920Z,35.70
2022-12-25T17:41:13.436Z,30.73
2022-12-25T17:43:42.145Z,35.65
2022-12-25T17:46:11.903Z,36.33
2022-12-25T17:48:38.384Z,35.38
2022-12-25T17:51:06.488Z,32.28
2022-12-25T17:53:35.174Z,35.35
2022-12-25T17:56:01.287Z,36.17
2022-12-25T17:58:27.720Z,33.08
2022-12-25T18:00:54.689Z,38.03
2022-12-25T18:03:21.641Z,34.30
2022-12-25T18:05:48.516Z,35.55
2022-12-25T18:08:15.181Z,36.88
2022-12-25T18:10:43.450Z,35.20
2022-12-25T18:13:11.534Z,32.53
2022-12-25T18:15:41.228Z,32.55
2022-12-25T18:18:08.348Z,28.60
2022-12-25T18:20:39.959Z,30.65
2022-12-25T18:23:06.468Z,34.67
2022-12-25T18:25:33.822Z,33.15
2022-12-25T18:28:02.721Z,35.88
2022-12-25T18:30:29.092Z,40.33
2022-12-25T18:32:55.446Z,30.55
2022-12-25T18:35:21.626Z,34.03
2022-12-25T18:37:48.249Z,29.50
2022-12-25T18:40:14.427Z,31.75
2022-12-25T18:42:40.571Z,33.78
2022-12-25T18:45:14.929Z,29.63
2022-12-25T18:47:41.252Z,30.65
2022-12-25T18:50:08.753Z,39.38
2022-12-25T18:52:49.554Z,33.65
2022-12-25T18:55:17.423Z,30.35
2022-12-25T18:57:43.588Z,31.10
2022-12-25T19:00:10.138Z,32.13
2022-12-25T19:02:36.381Z,30.60
2022-12-25T19:05:02.530Z,37.38
2022-12-25T19:07:28.709Z,27.90
2022-12-25T19:09:54.836Z,27.42
2022-12-25T19:12:20.987Z,31.23
2022-12-25T19:14:48.379Z,24.52
2022-12-25T19:17:15.182Z,25.73
2022-12-25T19:19:41.306Z,30.45
2022-12-25T19:22:07.669Z,26.60
2022-12-25T19:24:34.372Z,22.77
2022-12-25T19:27:00.500Z,29.08
2022-12-25T19:29:26.622Z,32.85
2022-12-25T19:31:53.328Z,23.67
2022-12-25T19:34:20.358Z,23.60
2022-12-25T19:36:46.483Z,25.13
2022-12-25T19:39:13.211Z,27.52
2022-12-25T19:41:39.761Z,23.35
2022-12-25T19:44:06.406Z,24.20
2022-12-25T19:46:35.936Z,20.63
2022-12-25T19:49:04.567Z,23.77
2022-12-25T19:51:33.421Z,23.65
2022-12-25T19:54:00.407Z,22.92
2022-12-25T19:56:27.859Z,24.52
2022-12-25T19:58:54.741Z,20.90
2022-12-25T20:01:22.968Z,26.20
2022-12-25T20:03:49.665Z,26.42
2022-12-25T20:06:20.084Z,20.88
2022-12-25T20:08:47.333Z,26.83
2022-12-25T20:11:13.581Z,24.13
2022-12-25T20:13:39.710Z,23.85
2022-12-25T20:16:08.978Z,25.77
2022-12-25T20:18:35.157Z,23.35
2022-12-25T20:21:07.039Z,22.30
2022-12-25T20:23:33.642Z,22.85
2022-12-25T20:26:01.265Z,26.73
2022-12-25T20:28:32.162Z,24.10
2022-12-25T20:30:58.283Z,25.17
2022-12-25T20:33:25.121Z,24.17
2022-12-25T20:35:51.426Z,30.33
2022-12-25T20:38:18.029Z,22.90
2022-12-25T20:41:24.459Z,25.75
2022-12-25T20:43:31.157Z,26.05
2022-12-25T20:45:57.353Z,27.30
2022-12-25T20:48:23.831Z,26.75
2022-12-25T20:50:50.378Z,22.90
2022-12-25T20:53:17.436Z,23.10
2022-12-25T20:55:48.500Z,23.95
2022-12-25T20:58:16.699Z,22.60
2022-12-25T21:00:44.494Z,26.60
2022-12-25T21:03:11.523Z,22.77
2022-12-25T21:05:49.815Z,23.45
2022-12-25T21:08:18.080Z,21.38
2022-12-25T21:10:46.270Z,25.35
2022-12-25T21:13:12.421Z,24.80
2022-12-25T21:15:44.011Z,25.20
2022-12-25T21:18:10.816Z,20.58
2022-12-25T21:20:37.016Z,21.17
2022-12-25T21:23:03.146Z,22.40
2022-12-25T21:25:29.268Z,26.88
2022-12-25T21:27:55.412Z,23.02
2022-12-25T21:30:21.576Z,19.92
2022-12-25T21:33:06.184Z,21.48
2022-12-25T21:35:36.159Z,20.52
2022-12-25T21:38:02.311Z,26.45
2022-12-25T21:40:28.427Z,22.50
2022-12-25T21:42:54.564Z,20.58
2022-12-25T21:45:20.685Z,24.17
2022-12-25T21:48:01.643Z,22.58
2022-12-25T21:50:47.767Z,20.90
2022-12-25T21:53:19.987Z,21.65
2022-12-25T21:55:56.966Z,19.63
2022-12-25T21:58:23.421Z,22.00
2022-12-25T22:00:49.629Z,20.60
2022-12-25T22:03:15.818Z,21.90
2022-12-25T22:06:00.730Z,23.20
2022-12-25T22:08:31.542Z,20.35
2022-12-25T22:10:58.621Z,18.40
2022-12-25T22:13:43.385Z,22.10
2022-12-25T22:16:28.380Z,21.83
2022-12-25T22:19:13.431Z,21.77
2022-12-25T22:21:39.607Z,20.50
2022-12-25T22:24:08.186Z,19.13
2022-12-25T22:26:35.120Z,18.50
2022-12-25T22:29:01.681Z,20.25
2022-12-25T22:31:28.084Z,21.35
2022-12-25T22:33:55.371Z,24.30
2022-12-25T22:36:21.718Z,18.63
2022-12-25T22:38:47.851Z,17.52
2022-12-25T22:41:13.964Z,16.50
2022-12-25T22:44:15.225Z,20.88
2022-12-25T22:46:27.242Z,18.88
2022-12-25T22:48:53.436Z,18.50
2022-12-25T22:51:19.556Z,18.05
2022-12-25T22:53:45.691Z,18.83
2022-12-25T22:56:11.809Z,18.23
2022-12-25T22:58:37.944Z,16.83
2022-12-25T23:01:07.996Z,20.27
2022-12-25T23:03:34.230Z,18.98
2022-12-25T23:06:00.447Z,19.27
2022-12-25T23:08:26.577Z,15.63
2022-12-25T23:10:52.721Z,19.80
2022-12-25T23:13:37.706Z,19.35
2022-12-25T23:16:04.733Z,21.90
2022-12-25T23:18:49.351Z,18.90
2022-12-25T23:21:36.120Z,18.15
2022-12-25T23:24:21.626Z,18.23
2022-12-25T23:26:47.818Z,16.13
2022-12-25T23:29:34.216Z,21.05
2022-12-25T23:32:00.362Z,19.15
2022-12-25T23:34:26.588Z,16.92
2022-12-25T23:36:52.705Z,22.30
2022-12-25T23:39:18.871Z,17.45
2022-12-25T23:41:46.664Z,19.80
2022-12-25T23:44:13.862Z,19.20
2022-12-25T23:46:40.819Z,18.92
2022-12-25T23:49:07.771Z,17.92
2022-12-25T23:51:38.664Z,18.67
2022-12-25T23:54:08.227Z,17.00
2022-12-25T23:56:34.392Z,15.77
2022-12-25T23:59:01.944Z,20.02
